KERI/ERI METAR and TAF weather

Enter ICAO airport designator
Station Type Date Time Source
KERI METAR 2020/12/06 00:51 UTC NOAA

KERI 060051Z AUTO 30008KT 10SM OVC020 01/M05 A3006 RMK AO2 SLP186 T00061050


Station Type Date Time Source
KERI Decoded METAR 2020/12/06 00:51 UTC NOAA

ERIE INTERNATIONAL AIRPORT, PA, United States (KERI) 42-05N 080-11W 222M
Dec 05, 2020 - 07:51 PM EST / 2020.12.06 0051 UTC
Wind: from the WNW (300 degrees) at 9 MPH (8 KT):0
Visibility: 10 mile(s):0
Sky conditions: overcast
Temperature: 33.1 F (0.6 C)
Windchill: 24 F (-4 C):1
Dew Point: 23.0 F (-5.0 C)
Relative Humidity: 66%
Pressure (altimeter): 30.06 in. Hg (1017 hPa)
ob: KERI 060051Z AUTO 30008KT 10SM OVC020 01/M05 A3006 RMK AO2 SLP186 T00061050
cycle: 1

Station Type Date Time Source
KERI TAF 2020/12/05 18:22 UTC NOAA

TAF KERI 051720Z 0518/0618 34008KT P6SM OVC019

Example: see airport list